sensor_id;sensor_type;location;lat;lon;timestamp;P1;durP1;ratioP1;P2;durP2;ratioP2
68050;SDS011;54839;51.364;7.246;2023-11-22T00:00:27;9.00;;;7.83;;
68050;SDS011;54839;51.364;7.246;2023-11-22T00:02:52;9.23;;;8.33;;
68050;SDS011;54839;51.364;7.246;2023-11-22T00:05:18;8.23;;;7.43;;
68050;SDS011;54839;51.364;7.246;2023-11-22T00:07:44;9.23;;;7.40;;
68050;SDS011;54839;51.364;7.246;2023-11-22T00:10:09;9.20;;;8.27;;
68050;SDS011;54839;51.364;7.246;2023-11-22T00:12:35;8.37;;;7.50;;
68050;SDS011;54839;51.364;7.246;2023-11-22T00:15:04;10.30;;;8.87;;
68050;SDS011;54839;51.364;7.246;2023-11-22T00:17:31;8.47;;;7.50;;
68050;SDS011;54839;51.364;7.246;2023-11-22T00:19:57;11.60;;;8.80;;
68050;SDS011;54839;51.364;7.246;2023-11-22T00:22:23;9.70;;;8.03;;
68050;SDS011;54839;51.364;7.246;2023-11-22T00:24:48;9.53;;;7.60;;
68050;SDS011;54839;51.364;7.246;2023-11-22T00:27:15;15.17;;;7.63;;
68050;SDS011;54839;51.364;7.246;2023-11-22T00:29:41;9.23;;;8.20;;
68050;SDS011;54839;51.364;7.246;2023-11-22T00:32:06;8.23;;;7.43;;
68050;SDS011;54839;51.364;7.246;2023-11-22T00:34:34;10.70;;;9.00;;
68050;SDS011;54839;51.364;7.246;2023-11-22T00:37:00;8.60;;;7.37;;
68050;SDS011;54839;51.364;7.246;2023-11-22T00:39:25;10.00;;;9.00;;
68050;SDS011;54839;51.364;7.246;2023-11-22T00:41:51;10.00;;;9.00;;
68050;SDS011;54839;51.364;7.246;2023-11-22T00:44:16;11.57;;;8.37;;
68050;SDS011;54839;51.364;7.246;2023-11-22T00:46:43;9.03;;;8.13;;
68050;SDS011;54839;51.364;7.246;2023-11-22T00:49:10;9.40;;;8.30;;
68050;SDS011;54839;51.364;7.246;2023-11-22T00:51:36;12.60;;;9.00;;
68050;SDS011;54839;51.364;7.246;2023-11-22T00:54:01;10.77;;;9.67;;
68050;SDS011;54839;51.364;7.246;2023-11-22T00:56:27;11.43;;;7.90;;
68050;SDS011;54839;51.364;7.246;2023-11-22T00:58:53;8.87;;;8.00;;
68050;SDS011;54839;51.364;7.246;2023-11-22T01:01:19;9.97;;;8.67;;
68050;SDS011;54839;51.364;7.246;2023-11-22T01:03:45;12.93;;;8.63;;
68050;SDS011;54839;51.364;7.246;2023-11-22T01:06:11;10.40;;;9.23;;
68050;SDS011;54839;51.364;7.246;2023-11-22T01:08:37;9.87;;;8.87;;
68050;SDS011;54839;51.364;7.246;2023-11-22T01:11:03;8.13;;;7.33;;
68050;SDS011;54839;51.364;7.246;2023-11-22T01:13:30;9.43;;;8.40;;
68050;SDS011;54839;51.364;7.246;2023-11-22T01:15:56;11.10;;;10.00;;
68050;SDS011;54839;51.364;7.246;2023-11-22T01:18:22;10.50;;;8.83;;
68050;SDS011;54839;51.364;7.246;2023-11-22T01:20:47;13.00;;;9.10;;
68050;SDS011;54839;51.364;7.246;2023-11-22T01:23:13;11.57;;;10.40;;
68050;SDS011;54839;51.364;7.246;2023-11-22T01:25:39;12.50;;;9.17;;
68050;SDS011;54839;51.364;7.246;2023-11-22T01:28:04;12.43;;;10.83;;
68050;SDS011;54839;51.364;7.246;2023-11-22T01:30:31;12.00;;;9.80;;
68050;SDS011;54839;51.364;7.246;2023-11-22T01:32:58;10.87;;;9.70;;
68050;SDS011;54839;51.364;7.246;2023-11-22T01:35:23;10.57;;;9.47;;
68050;SDS011;54839;51.364;7.246;2023-11-22T01:37:49;11.87;;;9.73;;
68050;SDS011;54839;51.364;7.246;2023-11-22T01:40:15;11.33;;;10.10;;
68050;SDS011;54839;51.364;7.246;2023-11-22T01:42:41;12.00;;;10.00;;
68050;SDS011;54839;51.364;7.246;2023-11-22T01:45:07;14.70;;;10.43;;
68050;SDS011;54839;51.364;7.246;2023-11-22T01:47:35;10.73;;;9.57;;
68050;SDS011;54839;51.364;7.246;2023-11-22T01:50:01;10.80;;;9.20;;
68050;SDS011;54839;51.364;7.246;2023-11-22T01:52:30;11.60;;;9.10;;
68050;SDS011;54839;51.364;7.246;2023-11-22T01:54:55;12.10;;;10.60;;
68050;SDS011;54839;51.364;7.246;2023-11-22T01:57:21;11.53;;;10.40;;
68050;SDS011;54839;51.364;7.246;2023-11-22T01:59:47;12.13;;;10.63;;
68050;SDS011;54839;51.364;7.246;2023-11-22T02:02:12;11.33;;;10.07;;
68050;SDS011;54839;51.364;7.246;2023-11-22T02:04:38;12.30;;;10.00;;
68050;SDS011;54839;51.364;7.246;2023-11-22T02:07:04;13.23;;;10.23;;
68050;SDS011;54839;51.364;7.246;2023-11-22T02:09:30;12.87;;;10.97;;
68050;SDS011;54839;51.364;7.246;2023-11-22T02:11:55;11.30;;;10.20;;
68050;SDS011;54839;51.364;7.246;2023-11-22T02:14:22;11.93;;;10.47;;
68050;SDS011;54839;51.364;7.246;2023-11-22T02:16:48;13.20;;;10.77;;
68050;SDS011;54839;51.364;7.246;2023-11-22T02:19:15;12.47;;;10.20;;
68050;SDS011;54839;51.364;7.246;2023-11-22T02:21:41;12.47;;;10.63;;
68050;SDS011;54839;51.364;7.246;2023-11-22T02:24:07;12.60;;;10.80;;
68050;SDS011;54839;51.364;7.246;2023-11-22T02:26:33;13.43;;;11.80;;
68050;SDS011;54839;51.364;7.246;2023-11-22T02:28:59;11.63;;;10.43;;
68050;SDS011;54839;51.364;7.246;2023-11-22T02:31:25;17.17;;;10.87;;
68050;SDS011;54839;51.364;7.246;2023-11-22T02:33:52;15.73;;;11.23;;
68050;SDS011;54839;51.364;7.246;2023-11-22T02:36:18;11.10;;;9.97;;
68050;SDS011;54839;51.364;7.246;2023-11-22T02:38:43;11.20;;;10.03;;
68050;SDS011;54839;51.364;7.246;2023-11-22T02:41:10;12.20;;;10.90;;
68050;SDS011;54839;51.364;7.246;2023-11-22T02:43:36;12.07;;;10.83;;
68050;SDS011;54839;51.364;7.246;2023-11-22T02:46:02;11.57;;;10.40;;
68050;SDS011;54839;51.364;7.246;2023-11-22T02:48:28;13.33;;;11.73;;
68050;SDS011;54839;51.364;7.246;2023-11-22T02:50:54;12.77;;;10.77;;
68050;SDS011;54839;51.364;7.246;2023-11-22T02:53:20;14.70;;;11.77;;
68050;SDS011;54839;51.364;7.246;2023-11-22T02:55:46;12.93;;;11.50;;
68050;SDS011;54839;51.364;7.246;2023-11-22T02:58:12;12.53;;;11.27;;
68050;SDS011;54839;51.364;7.246;2023-11-22T03:00:37;14.97;;;11.80;;
68050;SDS011;54839;51.364;7.246;2023-11-22T03:03:06;12.83;;;11.10;;
68050;SDS011;54839;51.364;7.246;2023-11-22T03:05:35;13.30;;;10.70;;
68050;SDS011;54839;51.364;7.246;2023-11-22T03:08:02;10.70;;;9.60;;
68050;SDS011;54839;51.364;7.246;2023-11-22T03:10:28;16.03;;;12.03;;
68050;SDS011;54839;51.364;7.246;2023-11-22T03:12:54;12.70;;;10.10;;
68050;SDS011;54839;51.364;7.246;2023-11-22T03:15:20;9.53;;;8.63;;
68050;SDS011;54839;51.364;7.246;2023-11-22T03:17:46;11.70;;;10.13;;
68050;SDS011;54839;51.364;7.246;2023-11-22T03:20:13;11.73;;;10.53;;
68050;SDS011;54839;51.364;7.246;2023-11-22T03:22:40;16.30;;;10.50;;
68050;SDS011;54839;51.364;7.246;2023-11-22T03:25:09;10.80;;;9.70;;
68050;SDS011;54839;51.364;7.246;2023-11-22T03:27:35;14.63;;;11.20;;
68050;SDS011;54839;51.364;7.246;2023-11-22T03:30:01;11.23;;;9.70;;
68050;SDS011;54839;51.364;7.246;2023-11-22T03:32:28;11.80;;;9.80;;
68050;SDS011;54839;51.364;7.246;2023-11-22T03:34:54;13.40;;;9.97;;
68050;SDS011;54839;51.364;7.246;2023-11-22T03:37:20;9.87;;;8.97;;
68050;SDS011;54839;51.364;7.246;2023-11-22T03:39:45;10.60;;;9.50;;
68050;SDS011;54839;51.364;7.246;2023-11-22T03:42:14;11.70;;;8.47;;
68050;SDS011;54839;51.364;7.246;2023-11-22T03:44:41;11.10;;;8.37;;
68050;SDS011;54839;51.364;7.246;2023-11-22T03:47:07;10.47;;;9.13;;
68050;SDS011;54839;51.364;7.246;2023-11-22T03:49:32;10.13;;;8.67;;
68050;SDS011;54839;51.364;7.246;2023-11-22T03:51:58;9.80;;;8.20;;
68050;SDS011;54839;51.364;7.246;2023-11-22T03:54:23;9.13;;;7.97;;
68050;SDS011;54839;51.364;7.246;2023-11-22T03:56:49;8.37;;;7.57;;
68050;SDS011;54839;51.364;7.246;2023-11-22T03:59:15;9.23;;;6.90;;
68050;SDS011;54839;51.364;7.246;2023-11-22T04:01:41;8.23;;;7.27;;
68050;SDS011;54839;51.364;7.246;2023-11-22T04:04:06;8.67;;;6.50;;
68050;SDS011;54839;51.364;7.246;2023-11-22T04:06:34;8.17;;;7.33;;
68050;SDS011;54839;51.364;7.246;2023-11-22T04:09:00;9.17;;;6.73;;
68050;SDS011;54839;51.364;7.246;2023-11-22T04:11:26;10.93;;;7.47;;
68050;SDS011;54839;51.364;7.246;2023-11-22T04:13:54;6.30;;;5.37;;
68050;SDS011;54839;51.364;7.246;2023-11-22T04:16:20;7.23;;;5.97;;
68050;SDS011;54839;51.364;7.246;2023-11-22T04:18:45;6.60;;;5.90;;
68050;SDS011;54839;51.364;7.246;2023-11-22T04:21:11;6.63;;;5.23;;
68050;SDS011;54839;51.364;7.246;2023-11-22T04:23:36;7.07;;;6.37;;
68050;SDS011;54839;51.364;7.246;2023-11-22T04:26:02;6.53;;;5.73;;
68050;SDS011;54839;51.364;7.246;2023-11-22T04:28:28;9.50;;;6.03;;
68050;SDS011;54839;51.364;7.246;2023-11-22T04:30:54;7.43;;;6.27;;
68050;SDS011;54839;51.364;7.246;2023-11-22T04:33:20;7.13;;;6.20;;
68050;SDS011;54839;51.364;7.246;2023-11-22T04:35:47;6.83;;;5.83;;
68050;SDS011;54839;51.364;7.246;2023-11-22T04:38:13;7.13;;;5.87;;
68050;SDS011;54839;51.364;7.246;2023-11-22T04:40:39;7.20;;;5.87;;
68050;SDS011;54839;51.364;7.246;2023-11-22T04:43:04;6.70;;;6.07;;
68050;SDS011;54839;51.364;7.246;2023-11-22T04:45:30;8.73;;;5.87;;
68050;SDS011;54839;51.364;7.246;2023-11-22T04:47:55;7.53;;;6.27;;
68050;SDS011;54839;51.364;7.246;2023-11-22T04:50:22;11.23;;;6.60;;
68050;SDS011;54839;51.364;7.246;2023-11-22T04:52:49;7.90;;;5.20;;
68050;SDS011;54839;51.364;7.246;2023-11-22T04:55:14;7.47;;;6.33;;
68050;SDS011;54839;51.364;7.246;2023-11-22T04:57:40;7.03;;;6.33;;
68050;SDS011;54839;51.364;7.246;2023-11-22T05:00:06;8.10;;;6.00;;
68050;SDS011;54839;51.364;7.246;2023-11-22T05:02:32;8.10;;;6.70;;
68050;SDS011;54839;51.364;7.246;2023-11-22T05:04:58;7.10;;;5.63;;
68050;SDS011;54839;51.364;7.246;2023-11-22T05:07:23;8.47;;;6.37;;
68050;SDS011;54839;51.364;7.246;2023-11-22T05:09:49;6.60;;;5.70;;
68050;SDS011;54839;51.364;7.246;2023-11-22T05:12:14;6.80;;;6.10;;
68050;SDS011;54839;51.364;7.246;2023-11-22T05:14:40;7.57;;;6.00;;
68050;SDS011;54839;51.364;7.246;2023-11-22T05:17:08;7.60;;;5.97;;
68050;SDS011;54839;51.364;7.246;2023-11-22T05:19:34;6.23;;;5.57;;
68050;SDS011;54839;51.364;7.246;2023-11-22T05:21:59;7.70;;;6.93;;
68050;SDS011;54839;51.364;7.246;2023-11-22T05:24:25;10.93;;;7.00;;
68050;SDS011;54839;51.364;7.246;2023-11-22T05:26:51;10.30;;;7.37;;
68050;SDS011;54839;51.364;7.246;2023-11-22T05:29:16;8.40;;;6.50;;
68050;SDS011;54839;51.364;7.246;2023-11-22T05:31:42;7.60;;;6.53;;
68050;SDS011;54839;51.364;7.246;2023-11-22T05:34:07;10.40;;;6.83;;
68050;SDS011;54839;51.364;7.246;2023-11-22T05:36:33;6.60;;;5.70;;
68050;SDS011;54839;51.364;7.246;2023-11-22T05:38:59;7.30;;;6.57;;
68050;SDS011;54839;51.364;7.246;2023-11-22T05:41:27;7.77;;;6.70;;
68050;SDS011;54839;51.364;7.246;2023-11-22T05:43:52;8.53;;;6.70;;
68050;SDS011;54839;51.364;7.246;2023-11-22T05:46:19;15.70;;;7.83;;
68050;SDS011;54839;51.364;7.246;2023-11-22T05:48:47;10.20;;;6.37;;
68050;SDS011;54839;51.364;7.246;2023-11-22T05:51:14;7.40;;;6.10;;
68050;SDS011;54839;51.364;7.246;2023-11-22T05:53:40;8.63;;;7.50;;
68050;SDS011;54839;51.364;7.246;2023-11-22T05:56:06;13.53;;;7.43;;
68050;SDS011;54839;51.364;7.246;2023-11-22T05:58:33;10.23;;;7.57;;
68050;SDS011;54839;51.364;7.246;2023-11-22T06:01:02;9.87;;;7.17;;
68050;SDS011;54839;51.364;7.246;2023-11-22T06:03:27;8.70;;;6.20;;
68050;SDS011;54839;51.364;7.246;2023-11-22T06:05:53;9.97;;;8.63;;
68050;SDS011;54839;51.364;7.246;2023-11-22T06:08:18;8.13;;;6.83;;
68050;SDS011;54839;51.364;7.246;2023-11-22T06:10:44;10.70;;;6.70;;
68050;SDS011;54839;51.364;7.246;2023-11-22T06:13:10;12.03;;;6.80;;
68050;SDS011;54839;51.364;7.246;2023-11-22T06:15:37;8.50;;;7.00;;
68050;SDS011;54839;51.364;7.246;2023-11-22T06:18:02;8.10;;;6.57;;
68050;SDS011;54839;51.364;7.246;2023-11-22T06:20:28;9.10;;;7.00;;
68050;SDS011;54839;51.364;7.246;2023-11-22T06:22:54;8.17;;;6.43;;
68050;SDS011;54839;51.364;7.246;2023-11-22T06:25:20;9.20;;;7.70;;
68050;SDS011;54839;51.364;7.246;2023-11-22T06:27:45;17.03;;;6.70;;
68050;SDS011;54839;51.364;7.246;2023-11-22T06:30:11;8.47;;;6.70;;
68050;SDS011;54839;51.364;7.246;2023-11-22T06:32:38;9.87;;;7.10;;
68050;SDS011;54839;51.364;7.246;2023-11-22T06:35:03;13.40;;;7.73;;
68050;SDS011;54839;51.364;7.246;2023-11-22T06:37:31;11.60;;;7.60;;
68050;SDS011;54839;51.364;7.246;2023-11-22T06:39:57;10.10;;;8.20;;
68050;SDS011;54839;51.364;7.246;2023-11-22T06:42:22;12.93;;;8.53;;
68050;SDS011;54839;51.364;7.246;2023-11-22T06:44:48;12.17;;;8.00;;
68050;SDS011;54839;51.364;7.246;2023-11-22T06:47:14;11.47;;;9.00;;
68050;SDS011;54839;51.364;7.246;2023-11-22T06:49:39;11.50;;;8.63;;
68050;SDS011;54839;51.364;7.246;2023-11-22T06:52:05;13.87;;;9.23;;
68050;SDS011;54839;51.364;7.246;2023-11-22T06:54:31;17.30;;;9.13;;
68050;SDS011;54839;51.364;7.246;2023-11-22T06:56:56;11.47;;;8.17;;
68050;SDS011;54839;51.364;7.246;2023-11-22T06:59:22;9.50;;;7.67;;
68050;SDS011;54839;51.364;7.246;2023-11-22T07:01:47;13.70;;;9.30;;
68050;SDS011;54839;51.364;7.246;2023-11-22T07:04:13;11.63;;;9.23;;
68050;SDS011;54839;51.364;7.246;2023-11-22T07:06:39;14.10;;;8.90;;
68050;SDS011;54839;51.364;7.246;2023-11-22T07:09:05;11.53;;;7.40;;
68050;SDS011;54839;51.364;7.246;2023-11-22T07:11:34;14.67;;;10.73;;
68050;SDS011;54839;51.364;7.246;2023-11-22T07:14:02;12.23;;;8.30;;
68050;SDS011;54839;51.364;7.246;2023-11-22T07:16:28;13.40;;;8.97;;
68050;SDS011;54839;51.364;7.246;2023-11-22T07:18:54;15.80;;;9.00;;
68050;SDS011;54839;51.364;7.246;2023-11-22T07:21:20;13.40;;;9.20;;
68050;SDS011;54839;51.364;7.246;2023-11-22T07:23:46;12.70;;;8.80;;
68050;SDS011;54839;51.364;7.246;2023-11-22T07:26:12;14.00;;;8.57;;
68050;SDS011;54839;51.364;7.246;2023-11-22T07:28:41;13.30;;;8.97;;
68050;SDS011;54839;51.364;7.246;2023-11-22T07:31:07;9.77;;;7.30;;
68050;SDS011;54839;51.364;7.246;2023-11-22T07:33:34;9.00;;;7.20;;
68050;SDS011;54839;51.364;7.246;2023-11-22T07:36:00;11.43;;;8.33;;
68050;SDS011;54839;51.364;7.246;2023-11-22T07:38:25;16.03;;;8.30;;
68050;SDS011;54839;51.364;7.246;2023-11-22T07:40:52;11.03;;;8.23;;
68050;SDS011;54839;51.364;7.246;2023-11-22T07:43:18;11.27;;;7.47;;
68050;SDS011;54839;51.364;7.246;2023-11-22T07:45:43;13.43;;;9.57;;
68050;SDS011;54839;51.364;7.246;2023-11-22T07:48:10;9.30;;;8.17;;
68050;SDS011;54839;51.364;7.246;2023-11-22T07:50:39;9.80;;;6.97;;
68050;SDS011;54839;51.364;7.246;2023-11-22T07:53:08;16.43;;;7.77;;
68050;SDS011;54839;51.364;7.246;2023-11-22T07:55:34;12.60;;;7.60;;
68050;SDS011;54839;51.364;7.246;2023-11-22T07:58:02;11.47;;;8.43;;
68050;SDS011;54839;51.364;7.246;2023-11-22T08:00:28;11.87;;;9.43;;
68050;SDS011;54839;51.364;7.246;2023-11-22T08:02:56;58.10;;;40.80;;
68050;SDS011;54839;51.364;7.246;2023-11-22T08:05:22;13.07;;;9.90;;
68050;SDS011;54839;51.364;7.246;2023-11-22T08:07:49;12.73;;;9.77;;
68050;SDS011;54839;51.364;7.246;2023-11-22T08:10:15;12.03;;;9.30;;
68050;SDS011;54839;51.364;7.246;2023-11-22T08:12:46;13.27;;;8.83;;
68050;SDS011;54839;51.364;7.246;2023-11-22T08:15:15;14.70;;;8.87;;
68050;SDS011;54839;51.364;7.246;2023-11-22T08:17:41;14.40;;;9.40;;
68050;SDS011;54839;51.364;7.246;2023-11-22T08:20:08;14.37;;;11.47;;
68050;SDS011;54839;51.364;7.246;2023-11-22T08:22:40;13.03;;;9.10;;
68050;SDS011;54839;51.364;7.246;2023-11-22T08:25:07;14.83;;;10.90;;
68050;SDS011;54839;51.364;7.246;2023-11-22T08:27:33;15.67;;;9.43;;
68050;SDS011;54839;51.364;7.246;2023-11-22T08:29:59;11.97;;;8.63;;
68050;SDS011;54839;51.364;7.246;2023-11-22T08:32:30;11.40;;;9.30;;
68050;SDS011;54839;51.364;7.246;2023-11-22T08:34:56;11.40;;;8.70;;
68050;SDS011;54839;51.364;7.246;2023-11-22T08:37:22;12.17;;;8.23;;
68050;SDS011;54839;51.364;7.246;2023-11-22T08:39:47;11.67;;;9.40;;
68050;SDS011;54839;51.364;7.246;2023-11-22T08:42:13;14.73;;;8.73;;
68050;SDS011;54839;51.364;7.246;2023-11-22T08:44:39;14.30;;;8.47;;
68050;SDS011;54839;51.364;7.246;2023-11-22T08:47:06;13.53;;;9.27;;
68050;SDS011;54839;51.364;7.246;2023-11-22T08:49:31;9.67;;;7.70;;
68050;SDS011;54839;51.364;7.246;2023-11-22T08:51:58;16.23;;;9.20;;
68050;SDS011;54839;51.364;7.246;2023-11-22T08:54:28;13.43;;;12.00;;
68050;SDS011;54839;51.364;7.246;2023-11-22T08:56:54;14.90;;;10.40;;
68050;SDS011;54839;51.364;7.246;2023-11-22T08:59:23;13.00;;;9.23;;
68050;SDS011;54839;51.364;7.246;2023-11-22T09:01:49;11.83;;;8.30;;
68050;SDS011;54839;51.364;7.246;2023-11-22T09:04:14;10.53;;;7.73;;
68050;SDS011;54839;51.364;7.246;2023-11-22T09:06:41;11.97;;;7.23;;
68050;SDS011;54839;51.364;7.246;2023-11-22T09:09:07;10.83;;;7.53;;
68050;SDS011;54839;51.364;7.246;2023-11-22T09:11:33;13.73;;;9.10;;
68050;SDS011;54839;51.364;7.246;2023-11-22T09:13:59;11.73;;;7.63;;
68050;SDS011;54839;51.364;7.246;2023-11-22T09:16:34;7.17;;;5.80;;
68050;SDS011;54839;51.364;7.246;2023-11-22T09:19:00;8.00;;;7.13;;
68050;SDS011;54839;51.364;7.246;2023-11-22T09:21:26;13.03;;;6.37;;
68050;SDS011;54839;51.364;7.246;2023-11-22T09:23:52;11.27;;;7.40;;
68050;SDS011;54839;51.364;7.246;2023-11-22T09:26:17;14.63;;;7.77;;
68050;SDS011;54839;51.364;7.246;2023-11-22T09:28:43;7.57;;;6.53;;
68050;SDS011;54839;51.364;7.246;2023-11-22T09:31:09;8.60;;;6.97;;
68050;SDS011;54839;51.364;7.246;2023-11-22T09:33:38;11.80;;;5.83;;
68050;SDS011;54839;51.364;7.246;2023-11-22T09:36:03;5.63;;;5.03;;
68050;SDS011;54839;51.364;7.246;2023-11-22T09:38:29;10.50;;;5.97;;
68050;SDS011;54839;51.364;7.246;2023-11-22T09:40:55;5.27;;;4.77;;
68050;SDS011;54839;51.364;7.246;2023-11-22T09:43:21;8.87;;;4.50;;
68050;SDS011;54839;51.364;7.246;2023-11-22T09:45:49;18.10;;;5.23;;
68050;SDS011;54839;51.364;7.246;2023-11-22T09:48:19;8.10;;;4.53;;
68050;SDS011;54839;51.364;7.246;2023-11-22T09:54:07;11.23;;;5.20;;
68050;SDS011;54839;51.364;7.246;2023-11-22T09:56:08;7.40;;;4.33;;
68050;SDS011;54839;51.364;7.246;2023-11-22T09:58:39;9.50;;;4.43;;
68050;SDS011;54839;51.364;7.246;2023-11-22T10:01:08;4.00;;;3.40;;
68050;SDS011;54839;51.364;7.246;2023-11-22T10:03:36;8.83;;;3.77;;
68050;SDS011;54839;51.364;7.246;2023-11-22T10:06:03;5.30;;;3.90;;
68050;SDS011;54839;51.364;7.246;2023-11-22T10:08:29;7.30;;;4.80;;
68050;SDS011;54839;51.364;7.246;2023-11-22T10:10:56;6.57;;;3.40;;
68050;SDS011;54839;51.364;7.246;2023-11-22T10:13:22;5.23;;;4.00;;
68050;SDS011;54839;51.364;7.246;2023-11-22T10:15:49;4.40;;;2.90;;
68050;SDS011;54839;51.364;7.246;2023-11-22T10:18:15;5.53;;;3.70;;
68050;SDS011;54839;51.364;7.246;2023-11-22T10:20:43;10.50;;;4.60;;
68050;SDS011;54839;51.364;7.246;2023-11-22T10:23:12;6.43;;;4.07;;
68050;SDS011;54839;51.364;7.246;2023-11-22T10:25:44;5.23;;;3.20;;
68050;SDS011;54839;51.364;7.246;2023-11-22T10:28:17;6.90;;;4.20;;
68050;SDS011;54839;51.364;7.246;2023-11-22T10:30:47;7.20;;;2.90;;
68050;SDS011;54839;51.364;7.246;2023-11-22T10:33:15;5.73;;;3.33;;
68050;SDS011;54839;51.364;7.246;2023-11-22T10:35:44;8.37;;;3.30;;
68050;SDS011;54839;51.364;7.246;2023-11-22T10:38:17;4.53;;;3.60;;
68050;SDS011;54839;51.364;7.246;2023-11-22T10:40:44;5.13;;;3.30;;
68050;SDS011;54839;51.364;7.246;2023-11-22T10:43:14;3.90;;;3.30;;
68050;SDS011;54839;51.364;7.246;2023-11-22T10:45:40;4.20;;;3.53;;
68050;SDS011;54839;51.364;7.246;2023-11-22T10:48:14;12.30;;;3.30;;
68050;SDS011;54839;51.364;7.246;2023-11-22T10:50:46;13.30;;;5.10;;
68050;SDS011;54839;51.364;7.246;2023-11-22T10:53:13;5.70;;;3.80;;
68050;SDS011;54839;51.364;7.246;2023-11-22T10:55:42;3.60;;;3.10;;
68050;SDS011;54839;51.364;7.246;2023-11-22T10:58:10;3.60;;;3.00;;
68050;SDS011;54839;51.364;7.246;2023-11-22T11:00:38;4.70;;;2.80;;
68050;SDS011;54839;51.364;7.246;2023-11-22T11:03:17;12.20;;;3.87;;
68050;SDS011;54839;51.364;7.246;2023-11-22T11:05:52;6.83;;;4.20;;
68050;SDS011;54839;51.364;7.246;2023-11-22T11:08:22;4.20;;;2.77;;
68050;SDS011;54839;51.364;7.246;2023-11-22T11:10:52;3.57;;;3.03;;
68050;SDS011;54839;51.364;7.246;2023-11-22T11:13:19;4.80;;;3.63;;
68050;SDS011;54839;51.364;7.246;2023-11-22T11:15:45;6.30;;;3.50;;
68050;SDS011;54839;51.364;7.246;2023-11-22T11:18:13;18.23;;;4.20;;
68050;SDS011;54839;51.364;7.246;2023-11-22T11:20:46;6.00;;;3.20;;
68050;SDS011;54839;51.364;7.246;2023-11-22T11:23:27;4.40;;;2.33;;
68050;SDS011;54839;51.364;7.246;2023-11-22T11:25:53;7.23;;;3.13;;
68050;SDS011;54839;51.364;7.246;2023-11-22T11:28:21;4.93;;;3.33;;
68050;SDS011;54839;51.364;7.246;2023-11-22T11:30:50;5.33;;;2.93;;
68050;SDS011;54839;51.364;7.246;2023-11-22T11:33:19;5.47;;;3.00;;
68050;SDS011;54839;51.364;7.246;2023-11-22T11:35:46;8.00;;;3.70;;
68050;SDS011;54839;51.364;7.246;2023-11-22T11:38:19;11.43;;;3.03;;
68050;SDS011;54839;51.364;7.246;2023-11-22T11:40:46;3.07;;;2.50;;
68050;SDS011;54839;51.364;7.246;2023-11-22T11:43:13;3.73;;;3.20;;
68050;SDS011;54839;51.364;7.246;2023-11-22T11:45:40;2.73;;;2.53;;
68050;SDS011;54839;51.364;7.246;2023-11-22T11:48:15;4.50;;;2.50;;
68050;SDS011;54839;51.364;7.246;2023-11-22T11:50:42;7.50;;;4.33;;
68050;SDS011;54839;51.364;7.246;2023-11-22T11:53:08;5.13;;;3.37;;
68050;SDS011;54839;51.364;7.246;2023-11-22T11:55:35;3.90;;;3.40;;
68050;SDS011;54839;51.364;7.246;2023-11-22T11:58:04;7.63;;;2.80;;
68050;SDS011;54839;51.364;7.246;2023-11-22T12:00:30;4.37;;;3.43;;
68050;SDS011;54839;51.364;7.246;2023-11-22T12:02:56;6.17;;;3.20;;
68050;SDS011;54839;51.364;7.246;2023-11-22T12:05:22;5.60;;;3.87;;
68050;SDS011;54839;51.364;7.246;2023-11-22T12:07:47;6.50;;;3.60;;
68050;SDS011;54839;51.364;7.246;2023-11-22T12:10:13;10.83;;;3.93;;
68050;SDS011;54839;51.364;7.246;2023-11-22T12:12:39;5.37;;;2.87;;
68050;SDS011;54839;51.364;7.246;2023-11-22T12:15:08;4.40;;;3.83;;
68050;SDS011;54839;51.364;7.246;2023-11-22T12:17:35;4.70;;;3.60;;
68050;SDS011;54839;51.364;7.246;2023-11-22T12:20:14;7.80;;;4.90;;
68050;SDS011;54839;51.364;7.246;2023-11-22T12:22:42;3.80;;;3.07;;
68050;SDS011;54839;51.364;7.246;2023-11-22T12:25:09;5.00;;;2.80;;
68050;SDS011;54839;51.364;7.246;2023-11-22T12:27:43;5.50;;;3.50;;
68050;SDS011;54839;51.364;7.246;2023-11-22T12:33:17;7.40;;;3.17;;
68050;SDS011;54839;51.364;7.246;2023-11-22T12:35:44;3.37;;;2.13;;
68050;SDS011;54839;51.364;7.246;2023-11-22T12:38:10;3.63;;;3.07;;
68050;SDS011;54839;51.364;7.246;2023-11-22T12:40:37;4.00;;;3.10;;
68050;SDS011;54839;51.364;7.246;2023-11-22T12:43:03;7.73;;;3.43;;
68050;SDS011;54839;51.364;7.246;2023-11-22T12:45:29;5.03;;;2.80;;
68050;SDS011;54839;51.364;7.246;2023-11-22T12:47:57;3.03;;;2.67;;
68050;SDS011;54839;51.364;7.246;2023-11-22T12:50:29;7.93;;;3.93;;
68050;SDS011;54839;51.364;7.246;2023-11-22T12:55:36;9.63;;;4.07;;
68050;SDS011;54839;51.364;7.246;2023-11-22T12:58:10;7.50;;;4.20;;
68050;SDS011;54839;51.364;7.246;2023-11-22T13:00:37;9.60;;;4.37;;
68050;SDS011;54839;51.364;7.246;2023-11-22T13:03:06;7.33;;;4.33;;
68050;SDS011;54839;51.364;7.246;2023-11-22T13:05:32;5.60;;;4.00;;
68050;SDS011;54839;51.364;7.246;2023-11-22T13:07:58;6.33;;;4.53;;
68050;SDS011;54839;51.364;7.246;2023-11-22T13:10:24;7.00;;;4.30;;
68050;SDS011;54839;51.364;7.246;2023-11-22T13:12:54;4.97;;;4.07;;
68050;SDS011;54839;51.364;7.246;2023-11-22T13:15:20;7.30;;;3.77;;
68050;SDS011;54839;51.364;7.246;2023-11-22T13:17:51;5.27;;;4.10;;
68050;SDS011;54839;51.364;7.246;2023-11-22T13:20:23;4.43;;;4.00;;
68050;SDS011;54839;51.364;7.246;2023-11-22T13:22:53;6.80;;;3.50;;
68050;SDS011;54839;51.364;7.246;2023-11-22T13:25:21;5.37;;;4.10;;
68050;SDS011;54839;51.364;7.246;2023-11-22T13:27:49;3.10;;;2.80;;
68050;SDS011;54839;51.364;7.246;2023-11-22T13:30:16;5.80;;;3.40;;
68050;SDS011;54839;51.364;7.246;2023-11-22T13:32:48;3.70;;;3.23;;
68050;SDS011;54839;51.364;7.246;2023-11-22T13:35:14;3.90;;;3.10;;
68050;SDS011;54839;51.364;7.246;2023-11-22T13:37:43;2.73;;;2.50;;
68050;SDS011;54839;51.364;7.246;2023-11-22T13:40:13;3.73;;;2.63;;
68050;SDS011;54839;51.364;7.246;2023-11-22T13:42:44;3.03;;;2.50;;
68050;SDS011;54839;51.364;7.246;2023-11-22T13:45:11;4.90;;;2.70;;
68050;SDS011;54839;51.364;7.246;2023-11-22T13:47:40;6.00;;;3.13;;
68050;SDS011;54839;51.364;7.246;2023-11-22T13:50:08;4.10;;;3.10;;
68050;SDS011;54839;51.364;7.246;2023-11-22T13:52:34;4.20;;;2.63;;
68050;SDS011;54839;51.364;7.246;2023-11-22T13:55:00;4.67;;;2.37;;
68050;SDS011;54839;51.364;7.246;2023-11-22T13:57:26;5.70;;;3.20;;
68050;SDS011;54839;51.364;7.246;2023-11-22T13:59:52;2.70;;;2.50;;
68050;SDS011;54839;51.364;7.246;2023-11-22T14:02:19;4.07;;;2.47;;
68050;SDS011;54839;51.364;7.246;2023-11-22T14:04:44;3.60;;;2.60;;
68050;SDS011;54839;51.364;7.246;2023-11-22T14:07:11;5.20;;;2.57;;
68050;SDS011;54839;51.364;7.246;2023-11-22T14:09:36;3.30;;;2.97;;
68050;SDS011;54839;51.364;7.246;2023-11-22T14:12:02;2.63;;;2.43;;
68050;SDS011;54839;51.364;7.246;2023-11-22T14:14:28;4.27;;;3.27;;
68050;SDS011;54839;51.364;7.246;2023-11-22T14:16:54;3.60;;;2.73;;
68050;SDS011;54839;51.364;7.246;2023-11-22T14:19:19;3.57;;;2.97;;
68050;SDS011;54839;51.364;7.246;2023-11-22T14:21:45;6.47;;;2.40;;
68050;SDS011;54839;51.364;7.246;2023-11-22T14:24:10;3.70;;;3.30;;
68050;SDS011;54839;51.364;7.246;2023-11-22T14:26:37;3.80;;;3.40;;
68050;SDS011;54839;51.364;7.246;2023-11-22T14:29:03;4.50;;;3.07;;
68050;SDS011;54839;51.364;7.246;2023-11-22T14:31:28;4.17;;;3.47;;
68050;SDS011;54839;51.364;7.246;2023-11-22T14:33:54;7.60;;;3.20;;
68050;SDS011;54839;51.364;7.246;2023-11-22T14:36:22;3.00;;;2.40;;
68050;SDS011;54839;51.364;7.246;2023-11-22T14:38:48;2.90;;;2.53;;
68050;SDS011;54839;51.364;7.246;2023-11-22T14:41:19;6.23;;;2.90;;
68050;SDS011;54839;51.364;7.246;2023-11-22T14:43:45;3.70;;;2.53;;
68050;SDS011;54839;51.364;7.246;2023-11-22T14:46:11;3.60;;;2.40;;